N124MC KFOK-KPOU
Flight info
| Callsign | N124MC |
|---|---|
| Flight time | 0h 35m |
| Altitude | 4500 |
| Route | VFR |
| Aircraft | M20P/L-VGD/C |
Departure
| Time | 2026-05-04 16:45 |
|---|---|
| Airport | Francis S Gabreski Airport (KFOK) |
Arrival
| Time | 2026-05-04 17:20 |
|---|---|
| Airport | Dutchess County Airport (KPOU) |
| Time | Latitude | Longitude | Altitude | Speed | Heading |
|---|---|---|---|---|---|
| 2026-05-04 16:39 | 40.84071 | -72.63914 | 53 ft | 0 kts | 266° |
| 2026-05-04 16:41 | 40.84071 | -72.63915 | 53 ft | 1 kts | 276° |
| 2026-05-04 16:42 | 40.84270 | -72.63895 | 59 ft | 16 kts | 353° |
| 2026-05-04 16:43 | 40.84546 | -72.63950 | 63 ft | 23 kts | 356° |
| 2026-05-04 16:43 | 40.84795 | -72.63861 | 64 ft | 20 kts | 42° |
| 2026-05-04 16:43 | 40.84832 | -72.63813 | 68 ft | 0 kts | 47° |
| 2026-05-04 16:44 | 40.84381 | -72.63748 | 93 ft | 70 kts | 175° |
| 2026-05-04 16:45 | 40.83301 | -72.63565 | 703 ft | 95 kts | 178° |
| 2026-05-04 16:46 | 40.82830 | -72.60427 | 1618 ft | 138 kts | 86° |
| 2026-05-04 16:46 | 40.82822 | -72.57809 | 2262 ft | 147 kts | 86° |
| 2026-05-04 16:47 | 40.83547 | -72.55621 | 2876 ft | 124 kts | 11° |
| 2026-05-04 16:47 | 40.84817 | -72.56360 | 3517 ft | 105 kts | 301° |
| 2026-05-04 16:48 | 40.86082 | -72.58671 | 4452 ft | 102 kts | 307° |
| 2026-05-04 16:48 | 40.86560 | -72.59465 | 4500 ft | 119 kts | 307° |
| 2026-05-04 16:49 | 40.87742 | -72.61421 | 4510 ft | 147 kts | 307° |
| 2026-05-04 16:49 | 40.89045 | -72.63582 | 4511 ft | 153 kts | 308° |
| 2026-05-04 16:50 | 40.90381 | -72.65804 | 4506 ft | 155 kts | 308° |
| 2026-05-04 16:50 | 40.91725 | -72.68041 | 4504 ft | 156 kts | 308° |
| 2026-05-04 16:51 | 40.93094 | -72.70320 | 4492 ft | 158 kts | 308° |
| 2026-05-04 16:51 | 40.93778 | -72.71455 | 4497 ft | 157 kts | 308° |
| 2026-05-04 16:51 | 40.95129 | -72.73709 | 4502 ft | 159 kts | 308° |
| 2026-05-04 16:52 | 40.96516 | -72.76022 | 4508 ft | 162 kts | 308° |
| 2026-05-04 16:52 | 40.97216 | -72.77190 | 4484 ft | 160 kts | 308° |
| 2026-05-04 16:53 | 40.98569 | -72.79449 | 4476 ft | 153 kts | 308° |
| 2026-05-04 16:53 | 41.00517 | -72.82706 | 4479 ft | 149 kts | 308° |
| 2026-05-04 16:54 | 41.01161 | -72.83783 | 4474 ft | 149 kts | 308° |
| 2026-05-04 16:55 | 41.03729 | -72.88082 | 4475 ft | 148 kts | 308° |
| 2026-05-04 16:55 | 41.04992 | -72.90199 | 4453 ft | 147 kts | 308° |
| 2026-05-04 16:56 | 41.06266 | -72.92335 | 4451 ft | 147 kts | 308° |
| 2026-05-04 16:56 | 41.08155 | -72.95505 | 4451 ft | 147 kts | 308° |
| 2026-05-04 16:57 | 41.08788 | -72.96569 | 4449 ft | 147 kts | 308° |
| 2026-05-04 16:57 | 41.10054 | -72.98694 | 4496 ft | 146 kts | 308° |
| 2026-05-04 16:58 | 41.11952 | -73.01887 | 4500 ft | 148 kts | 308° |
| 2026-05-04 16:58 | 41.12590 | -73.02961 | 4500 ft | 148 kts | 308° |
| 2026-05-04 16:59 | 41.13872 | -73.05120 | 4494 ft | 150 kts | 308° |
| 2026-05-04 17:00 | 41.16459 | -73.09480 | 4502 ft | 151 kts | 308° |
| 2026-05-04 17:00 | 41.18431 | -73.12807 | 4466 ft | 154 kts | 309° |
| 2026-05-04 17:01 | 41.19755 | -73.15045 | 4479 ft | 155 kts | 309° |
| 2026-05-04 17:01 | 41.21081 | -73.17287 | 4472 ft | 153 kts | 309° |
| 2026-05-04 17:02 | 41.22393 | -73.19506 | 4469 ft | 155 kts | 309° |
| 2026-05-04 17:02 | 41.23714 | -73.21743 | 4465 ft | 151 kts | 309° |
| 2026-05-04 17:03 | 41.24359 | -73.22836 | 4476 ft | 150 kts | 309° |
| 2026-05-04 17:03 | 41.25002 | -73.23927 | 4460 ft | 150 kts | 308° |
| 2026-05-04 17:03 | 41.26295 | -73.26119 | 4471 ft | 152 kts | 309° |
| 2026-05-04 17:04 | 41.27587 | -73.28311 | 4474 ft | 150 kts | 309° |
| 2026-05-04 17:04 | 41.28867 | -73.30484 | 4463 ft | 149 kts | 308° |
| 2026-05-04 17:05 | 41.30155 | -73.32672 | 4460 ft | 150 kts | 308° |
| 2026-05-04 17:05 | 41.31439 | -73.34854 | 4464 ft | 150 kts | 308° |
| 2026-05-04 17:06 | 41.32728 | -73.37048 | 4461 ft | 151 kts | 308° |
| 2026-05-04 17:06 | 41.33374 | -73.38148 | 4454 ft | 151 kts | 308° |
| 2026-05-04 17:07 | 41.34674 | -73.40362 | 4455 ft | 153 kts | 308° |
| 2026-05-04 17:07 | 41.35107 | -73.41098 | 4456 ft | 153 kts | 308° |
| 2026-05-04 17:07 | 41.35979 | -73.42589 | 4481 ft | 153 kts | 308° |
| 2026-05-04 17:07 | 41.36639 | -73.43714 | 4462 ft | 153 kts | 308° |
| 2026-05-04 17:08 | 41.37283 | -73.44810 | 4467 ft | 150 kts | 308° |
| 2026-05-04 17:08 | 41.38572 | -73.47009 | 4455 ft | 150 kts | 308° |
| 2026-05-04 17:08 | 41.39212 | -73.48105 | 4453 ft | 151 kts | 308° |
| 2026-05-04 17:09 | 41.39780 | -73.49078 | 4464 ft | 151 kts | 308° |
| 2026-05-04 17:09 | 41.40431 | -73.50185 | 4462 ft | 152 kts | 308° |
| 2026-05-04 17:09 | 41.41083 | -73.51301 | 4460 ft | 153 kts | 308° |
| 2026-05-04 17:10 | 41.42394 | -73.53545 | 4461 ft | 156 kts | 307° |
| 2026-05-04 17:10 | 41.44365 | -73.56923 | 4462 ft | 155 kts | 307° |
| 2026-05-04 17:11 | 41.45029 | -73.58057 | 4459 ft | 155 kts | 308° |
| 2026-05-04 17:11 | 41.45696 | -73.59198 | 4461 ft | 153 kts | 307° |
| 2026-05-04 17:11 | 41.46992 | -73.61424 | 4457 ft | 152 kts | 307° |
| 2026-05-04 17:12 | 41.47643 | -73.62542 | 4462 ft | 150 kts | 307° |
| 2026-05-04 17:12 | 41.48965 | -73.64810 | 4091 ft | 157 kts | 307° |
| 2026-05-04 17:13 | 41.50725 | -73.67837 | 3405 ft | 152 kts | 307° |
| 2026-05-04 17:14 | 41.52562 | -73.70997 | 2601 ft | 139 kts | 306° |
| 2026-05-04 17:14 | 41.53355 | -73.72359 | 2260 ft | 142 kts | 306° |
| 2026-05-04 17:14 | 41.54375 | -73.74120 | 1823 ft | 142 kts | 307° |
| 2026-05-04 17:15 | 41.55199 | -73.75538 | 1477 ft | 149 kts | 306° |
| 2026-05-04 17:15 | 41.56278 | -73.77402 | 1143 ft | 151 kts | 305° |
| 2026-05-04 17:16 | 41.57534 | -73.79558 | 1187 ft | 139 kts | 304° |
| 2026-05-04 17:16 | 41.59253 | -73.82532 | 1189 ft | 129 kts | 303° |
| 2026-05-04 17:17 | 41.59759 | -73.83397 | 1187 ft | 107 kts | 303° |
| 2026-05-04 17:17 | 41.60868 | -73.85263 | 1082 ft | 82 kts | 294° |
| 2026-05-04 17:18 | 41.61051 | -73.85976 | 1101 ft | 84 kts | 296° |
| 2026-05-04 17:18 | 41.62155 | -73.85772 | 1092 ft | 109 kts | 38° |
| 2026-05-04 17:19 | 41.63415 | -73.85733 | 778 ft | 101 kts | 322° |
| 2026-05-04 17:19 | 41.63458 | -73.87143 | 352 ft | 73 kts | 224° |
| 2026-05-04 17:20 | 41.62848 | -73.88132 | 164 ft | 54 kts | 224° |
| 2026-05-04 17:20 | 41.62607 | -73.88350 | 161 ft | 11 kts | 139° |
| 2026-05-04 17:20 | 41.62547 | -73.88287 | 161 ft | 11 kts | 141° |
| 2026-05-04 17:21 | 41.62464 | -73.88296 | 161 ft | 0 kts | 226° |